sensor_id;sensor_type;location;lat;lon;timestamp;temperature;humidity
28654;DHT22;24320;56.980;24.336;2023-03-14T00:02:06;4.20;99.90
28654;DHT22;24320;56.980;24.336;2023-03-14T00:04:33;4.20;99.90
28654;DHT22;24320;56.980;24.336;2023-03-14T00:07:00;4.20;99.90
28654;DHT22;24320;56.980;24.336;2023-03-14T00:09:27;4.20;99.90
28654;DHT22;24320;56.980;24.336;2023-03-14T00:11:56;4.30;99.90
28654;DHT22;24320;56.980;24.336;2023-03-14T00:14:23;4.30;99.90
28654;DHT22;24320;56.980;24.336;2023-03-14T00:16:51;4.30;99.90
28654;DHT22;24320;56.980;24.336;2023-03-14T00:19:18;4.30;99.90
28654;DHT22;24320;56.980;24.336;2023-03-14T00:21:45;4.30;99.90
28654;DHT22;24320;56.980;24.336;2023-03-14T00:24:11;4.30;99.90
28654;DHT22;24320;56.980;24.336;2023-03-14T00:26:39;4.20;99.90
28654;DHT22;24320;56.980;24.336;2023-03-14T00:29:06;4.20;99.90
28654;DHT22;24320;56.980;24.336;2023-03-14T00:31:33;4.30;99.90
28654;DHT22;24320;56.980;24.336;2023-03-14T00:34:02;4.20;99.90
28654;DHT22;24320;56.980;24.336;2023-03-14T00:36:29;4.30;99.90
28654;DHT22;24320;56.980;24.336;2023-03-14T00:38:56;4.20;99.90
28654;DHT22;24320;56.980;24.336;2023-03-14T00:41:30;4.30;99.90
28654;DHT22;24320;56.980;24.336;2023-03-14T00:43:56;4.30;99.90
28654;DHT22;24320;56.980;24.336;2023-03-14T00:46:23;4.30;99.90
28654;DHT22;24320;56.980;24.336;2023-03-14T00:48:51;4.40;99.90
28654;DHT22;24320;56.980;24.336;2023-03-14T00:51:18;4.40;99.90
28654;DHT22;24320;56.980;24.336;2023-03-14T00:53:45;4.40;99.90
28654;DHT22;24320;56.980;24.336;2023-03-14T00:56:13;4.40;99.90
28654;DHT22;24320;56.980;24.336;2023-03-14T00:58:40;4.40;99.90
28654;DHT22;24320;56.980;24.336;2023-03-14T01:01:13;4.50;99.90
28654;DHT22;24320;56.980;24.336;2023-03-14T01:03:40;4.50;99.90
28654;DHT22;24320;56.980;24.336;2023-03-14T01:06:20;4.50;99.90
28654;DHT22;24320;56.980;24.336;2023-03-14T01:08:47;4.50;99.90
28654;DHT22;24320;56.980;24.336;2023-03-14T01:11:17;4.50;99.90
28654;DHT22;24320;56.980;24.336;2023-03-14T01:13:44;4.60;99.90
28654;DHT22;24320;56.980;24.336;2023-03-14T01:16:12;4.60;99.90
28654;DHT22;24320;56.980;24.336;2023-03-14T01:18:41;4.70;99.90
28654;DHT22;24320;56.980;24.336;2023-03-14T01:23:42;4.70;99.90
28654;DHT22;24320;56.980;24.336;2023-03-14T01:26:14;4.70;99.90
28654;DHT22;24320;56.980;24.336;2023-03-14T01:28:41;4.70;99.90
28654;DHT22;24320;56.980;24.336;2023-03-14T01:31:10;4.70;99.90
28654;DHT22;24320;56.980;24.336;2023-03-14T01:33:38;4.70;99.90
28654;DHT22;24320;56.980;24.336;2023-03-14T01:36:06;4.70;99.90
28654;DHT22;24320;56.980;24.336;2023-03-14T01:38:34;4.80;99.90
28654;DHT22;24320;56.980;24.336;2023-03-14T01:41:02;4.70;99.90
28654;DHT22;24320;56.980;24.336;2023-03-14T01:43:30;4.70;99.90
28654;DHT22;24320;56.980;24.336;2023-03-14T01:51:00;4.70;99.90
28654;DHT22;24320;56.980;24.336;2023-03-14T01:53:29;4.70;99.90
28654;DHT22;24320;56.980;24.336;2023-03-14T01:55:57;4.70;99.90
28654;DHT22;24320;56.980;24.336;2023-03-14T01:58:25;4.70;99.90
28654;DHT22;24320;56.980;24.336;2023-03-14T02:00:56;4.80;99.90
28654;DHT22;24320;56.980;24.336;2023-03-14T02:03:25;4.80;99.90
28654;DHT22;24320;56.980;24.336;2023-03-14T02:05:54;4.70;99.90
28654;DHT22;24320;56.980;24.336;2023-03-14T02:08:23;4.70;99.90
28654;DHT22;24320;56.980;24.336;2023-03-14T02:10:51;4.70;99.90
28654;DHT22;24320;56.980;24.336;2023-03-14T02:13:19;4.80;99.90
28654;DHT22;24320;56.980;24.336;2023-03-14T02:15:48;4.80;99.90
28654;DHT22;24320;56.980;24.336;2023-03-14T02:18:16;4.80;99.90
28654;DHT22;24320;56.980;24.336;2023-03-14T02:21:11;4.80;99.90
28654;DHT22;24320;56.980;24.336;2023-03-14T02:24:22;4.80;99.90
28654;DHT22;24320;56.980;24.336;2023-03-14T02:29:32;4.90;99.90
28654;DHT22;24320;56.980;24.336;2023-03-14T02:32:00;4.90;99.90
28654;DHT22;24320;56.980;24.336;2023-03-14T02:34:27;4.90;99.90
28654;DHT22;24320;56.980;24.336;2023-03-14T02:36:55;4.90;99.90
28654;DHT22;24320;56.980;24.336;2023-03-14T02:39:31;4.90;99.90
28654;DHT22;24320;56.980;24.336;2023-03-14T02:42:00;4.90;99.90
28654;DHT22;24320;56.980;24.336;2023-03-14T02:44:27;4.90;99.90
28654;DHT22;24320;56.980;24.336;2023-03-14T02:46:54;5.00;99.90
28654;DHT22;24320;56.980;24.336;2023-03-14T02:49:21;5.10;99.90
28654;DHT22;24320;56.980;24.336;2023-03-14T02:51:49;5.10;99.90
28654;DHT22;24320;56.980;24.336;2023-03-14T02:54:16;5.10;99.90
28654;DHT22;24320;56.980;24.336;2023-03-14T02:56:45;5.10;99.90
28654;DHT22;24320;56.980;24.336;2023-03-14T02:59:12;5.10;99.90
28654;DHT22;24320;56.980;24.336;2023-03-14T03:01:39;5.20;99.90
28654;DHT22;24320;56.980;24.336;2023-03-14T03:04:06;5.10;99.90
28654;DHT22;24320;56.980;24.336;2023-03-14T03:06:33;5.10;99.90
28654;DHT22;24320;56.980;24.336;2023-03-14T03:09:00;5.10;99.90
28654;DHT22;24320;56.980;24.336;2023-03-14T03:11:27;5.10;99.90
28654;DHT22;24320;56.980;24.336;2023-03-14T03:13:54;5.20;99.90
28654;DHT22;24320;56.980;24.336;2023-03-14T03:16:21;5.20;99.90
28654;DHT22;24320;56.980;24.336;2023-03-14T03:18:48;5.20;99.90
28654;DHT22;24320;56.980;24.336;2023-03-14T03:21:15;5.20;99.90
28654;DHT22;24320;56.980;24.336;2023-03-14T03:23:42;5.20;99.90
28654;DHT22;24320;56.980;24.336;2023-03-14T03:26:10;5.20;99.90
28654;DHT22;24320;56.980;24.336;2023-03-14T03:28:37;5.20;99.90
28654;DHT22;24320;56.980;24.336;2023-03-14T03:31:11;5.20;99.90
28654;DHT22;24320;56.980;24.336;2023-03-14T03:33:39;5.20;99.90
28654;DHT22;24320;56.980;24.336;2023-03-14T03:36:07;5.20;99.90
28654;DHT22;24320;56.980;24.336;2023-03-14T03:38:34;5.30;99.90
28654;DHT22;24320;56.980;24.336;2023-03-14T03:41:04;5.20;99.90
28654;DHT22;24320;56.980;24.336;2023-03-14T03:43:31;5.20;99.90
28654;DHT22;24320;56.980;24.336;2023-03-14T03:46:02;5.30;99.90
28654;DHT22;24320;56.980;24.336;2023-03-14T03:48:29;5.30;99.90
28654;DHT22;24320;56.980;24.336;2023-03-14T03:50:56;5.30;99.90
28654;DHT22;24320;56.980;24.336;2023-03-14T03:53:23;5.40;99.90
28654;DHT22;24320;56.980;24.336;2023-03-14T03:55:59;5.40;99.90
28654;DHT22;24320;56.980;24.336;2023-03-14T03:58:26;5.50;99.90
28654;DHT22;24320;56.980;24.336;2023-03-14T04:00:54;5.50;99.90
28654;DHT22;24320;56.980;24.336;2023-03-14T04:03:21;5.50;99.90
28654;DHT22;24320;56.980;24.336;2023-03-14T04:05:58;5.50;99.90
28654;DHT22;24320;56.980;24.336;2023-03-14T04:08:26;5.50;99.90
28654;DHT22;24320;56.980;24.336;2023-03-14T04:11:00;5.50;99.90
28654;DHT22;24320;56.980;24.336;2023-03-14T04:13:28;5.50;99.90
28654;DHT22;24320;56.980;24.336;2023-03-14T04:15:55;5.50;99.90
28654;DHT22;24320;56.980;24.336;2023-03-14T04:18:23;5.60;99.90
28654;DHT22;24320;56.980;24.336;2023-03-14T04:20:54;5.60;99.90
28654;DHT22;24320;56.980;24.336;2023-03-14T04:23:22;5.70;99.90
28654;DHT22;24320;56.980;24.336;2023-03-14T04:25:52;5.70;99.90
28654;DHT22;24320;56.980;24.336;2023-03-14T04:28:20;5.80;99.90
28654;DHT22;24320;56.980;24.336;2023-03-14T04:30:46;5.70;99.90
28654;DHT22;24320;56.980;24.336;2023-03-14T04:33:13;5.80;99.90
28654;DHT22;24320;56.980;24.336;2023-03-14T04:35:47;5.80;99.90
28654;DHT22;24320;56.980;24.336;2023-03-14T04:38:16;5.70;99.90
28654;DHT22;24320;56.980;24.336;2023-03-14T04:40:44;5.60;99.90
28654;DHT22;24320;56.980;24.336;2023-03-14T04:43:11;5.70;99.90
28654;DHT22;24320;56.980;24.336;2023-03-14T04:45:42;5.70;99.90
28654;DHT22;24320;56.980;24.336;2023-03-14T04:48:09;5.60;99.90
28654;DHT22;24320;56.980;24.336;2023-03-14T04:50:36;5.60;99.90
28654;DHT22;24320;56.980;24.336;2023-03-14T04:53:03;5.60;99.90
28654;DHT22;24320;56.980;24.336;2023-03-14T04:55:31;5.50;99.90
28654;DHT22;24320;56.980;24.336;2023-03-14T04:57:59;5.50;99.90
28654;DHT22;24320;56.980;24.336;2023-03-14T05:00:26;5.50;99.90
28654;DHT22;24320;56.980;24.336;2023-03-14T05:02:53;5.60;99.90
28654;DHT22;24320;56.980;24.336;2023-03-14T05:05:20;5.60;99.90
28654;DHT22;24320;56.980;24.336;2023-03-14T05:07:47;5.60;99.90
28654;DHT22;24320;56.980;24.336;2023-03-14T05:10:14;5.60;99.90
28654;DHT22;24320;56.980;24.336;2023-03-14T05:12:41;5.70;99.90
28654;DHT22;24320;56.980;24.336;2023-03-14T05:15:08;5.70;99.90
28654;DHT22;24320;56.980;24.336;2023-03-14T05:17:36;5.70;99.90
28654;DHT22;24320;56.980;24.336;2023-03-14T05:20:03;5.80;99.90
28654;DHT22;24320;56.980;24.336;2023-03-14T05:22:36;5.80;99.90
28654;DHT22;24320;56.980;24.336;2023-03-14T05:25:03;5.90;99.90
28654;DHT22;24320;56.980;24.336;2023-03-14T05:27:30;5.90;99.90
28654;DHT22;24320;56.980;24.336;2023-03-14T05:29:57;5.90;99.90
28654;DHT22;24320;56.980;24.336;2023-03-14T05:32:24;6.00;99.90
28654;DHT22;24320;56.980;24.336;2023-03-14T05:34:51;6.00;99.90
28654;DHT22;24320;56.980;24.336;2023-03-14T05:37:18;6.10;99.90
28654;DHT22;24320;56.980;24.336;2023-03-14T05:39:45;6.10;99.90
28654;DHT22;24320;56.980;24.336;2023-03-14T05:42:12;6.10;99.90
28654;DHT22;24320;56.980;24.336;2023-03-14T05:44:40;6.10;99.90
28654;DHT22;24320;56.980;24.336;2023-03-14T05:47:07;6.10;99.90
28654;DHT22;24320;56.980;24.336;2023-03-14T05:49:34;6.10;99.90
28654;DHT22;24320;56.980;24.336;2023-03-14T05:52:01;6.10;99.90
28654;DHT22;24320;56.980;24.336;2023-03-14T05:54:28;6.10;99.90
28654;DHT22;24320;56.980;24.336;2023-03-14T05:56:55;6.10;99.90
28654;DHT22;24320;56.980;24.336;2023-03-14T05:59:22;6.20;99.90
28654;DHT22;24320;56.980;24.336;2023-03-14T06:01:49;6.20;99.90
28654;DHT22;24320;56.980;24.336;2023-03-14T06:04:16;6.20;99.90
28654;DHT22;24320;56.980;24.336;2023-03-14T06:06:42;6.20;99.90
28654;DHT22;24320;56.980;24.336;2023-03-14T06:09:09;6.20;99.90
28654;DHT22;24320;56.980;24.336;2023-03-14T06:11:36;6.20;99.90
28654;DHT22;24320;56.980;24.336;2023-03-14T06:14:03;6.20;99.90
28654;DHT22;24320;56.980;24.336;2023-03-14T06:16:30;6.20;99.90
28654;DHT22;24320;56.980;24.336;2023-03-14T06:18:59;6.20;99.90
28654;DHT22;24320;56.980;24.336;2023-03-14T06:21:26;6.20;99.90
28654;DHT22;24320;56.980;24.336;2023-03-14T06:23:53;6.10;99.90
28654;DHT22;24320;56.980;24.336;2023-03-14T06:26:20;6.10;99.90
28654;DHT22;24320;56.980;24.336;2023-03-14T06:28:47;6.10;99.90
28654;DHT22;24320;56.980;24.336;2023-03-14T06:31:14;6.00;99.90
28654;DHT22;24320;56.980;24.336;2023-03-14T06:33:41;6.00;99.90
28654;DHT22;24320;56.980;24.336;2023-03-14T06:36:08;5.90;99.90
28654;DHT22;24320;56.980;24.336;2023-03-14T06:38:35;6.00;99.90
28654;DHT22;24320;56.980;24.336;2023-03-14T06:41:06;6.00;99.90
28654;DHT22;24320;56.980;24.336;2023-03-14T06:43:33;6.20;99.90
28654;DHT22;24320;56.980;24.336;2023-03-14T06:46:00;6.20;99.90
28654;DHT22;24320;56.980;24.336;2023-03-14T06:48:27;6.30;99.90
28654;DHT22;24320;56.980;24.336;2023-03-14T06:50:54;6.30;99.90
28654;DHT22;24320;56.980;24.336;2023-03-14T06:53:21;6.50;99.90
28654;DHT22;24320;56.980;24.336;2023-03-14T06:55:48;6.80;99.90
28654;DHT22;24320;56.980;24.336;2023-03-14T06:58:15;7.00;99.90
28654;DHT22;24320;56.980;24.336;2023-03-14T07:00:42;7.10;99.90
28654;DHT22;24320;56.980;24.336;2023-03-14T07:03:10;7.00;99.90
28654;DHT22;24320;56.980;24.336;2023-03-14T07:05:39;6.90;99.90
28654;DHT22;24320;56.980;24.336;2023-03-14T07:08:09;7.00;99.90
28654;DHT22;24320;56.980;24.336;2023-03-14T07:10:37;7.10;99.90
28654;DHT22;24320;56.980;24.336;2023-03-14T07:13:04;7.20;99.90
28654;DHT22;24320;56.980;24.336;2023-03-14T07:15:31;7.20;99.90
28654;DHT22;24320;56.980;24.336;2023-03-14T07:17:58;7.20;99.90
28654;DHT22;24320;56.980;24.336;2023-03-14T07:20:25;7.30;99.90
28654;DHT22;24320;56.980;24.336;2023-03-14T07:22:52;7.40;99.90
28654;DHT22;24320;56.980;24.336;2023-03-14T07:25:19;7.40;99.90
28654;DHT22;24320;56.980;24.336;2023-03-14T07:27:46;7.30;99.90
28654;DHT22;24320;56.980;24.336;2023-03-14T07:30:14;7.10;99.90
28654;DHT22;24320;56.980;24.336;2023-03-14T07:32:42;7.00;99.90
28654;DHT22;24320;56.980;24.336;2023-03-14T07:35:09;6.80;99.90
28654;DHT22;24320;56.980;24.336;2023-03-14T07:37:36;6.60;99.90
28654;DHT22;24320;56.980;24.336;2023-03-14T07:40:03;6.50;99.90
28654;DHT22;24320;56.980;24.336;2023-03-14T07:42:33;6.50;99.90
28654;DHT22;24320;56.980;24.336;2023-03-14T07:45:00;6.60;99.90
28654;DHT22;24320;56.980;24.336;2023-03-14T07:47:28;6.50;99.90
28654;DHT22;24320;56.980;24.336;2023-03-14T07:49:55;6.60;99.90
28654;DHT22;24320;56.980;24.336;2023-03-14T07:52:22;6.50;99.90
28654;DHT22;24320;56.980;24.336;2023-03-14T07:54:50;6.50;99.90
28654;DHT22;24320;56.980;24.336;2023-03-14T07:57:17;6.60;99.90
28654;DHT22;24320;56.980;24.336;2023-03-14T07:59:51;6.70;99.90
28654;DHT22;24320;56.980;24.336;2023-03-14T08:02:18;6.70;99.90
28654;DHT22;24320;56.980;24.336;2023-03-14T08:04:49;6.70;99.90
28654;DHT22;24320;56.980;24.336;2023-03-14T08:07:16;6.80;99.90
28654;DHT22;24320;56.980;24.336;2023-03-14T08:09:43;6.80;99.90
28654;DHT22;24320;56.980;24.336;2023-03-14T08:12:10;6.80;99.90
28654;DHT22;24320;56.980;24.336;2023-03-14T08:14:37;6.80;99.90
28654;DHT22;24320;56.980;24.336;2023-03-14T08:17:04;6.80;99.90
28654;DHT22;24320;56.980;24.336;2023-03-14T08:19:33;6.90;99.90
28654;DHT22;24320;56.980;24.336;2023-03-14T08:22:00;7.00;99.90
28654;DHT22;24320;56.980;24.336;2023-03-14T08:24:27;7.00;99.90
28654;DHT22;24320;56.980;24.336;2023-03-14T08:26:53;7.20;99.90
28654;DHT22;24320;56.980;24.336;2023-03-14T08:29:20;7.20;99.90
28654;DHT22;24320;56.980;24.336;2023-03-14T08:31:47;7.30;99.90
28654;DHT22;24320;56.980;24.336;2023-03-14T08:34:16;7.30;99.90
28654;DHT22;24320;56.980;24.336;2023-03-14T08:36:43;7.40;99.90
28654;DHT22;24320;56.980;24.336;2023-03-14T08:39:10;7.40;99.90
28654;DHT22;24320;56.980;24.336;2023-03-14T08:41:37;7.50;99.90
28654;DHT22;24320;56.980;24.336;2023-03-14T08:44:07;7.60;99.90
28654;DHT22;24320;56.980;24.336;2023-03-14T08:46:35;7.70;99.90
28654;DHT22;24320;56.980;24.336;2023-03-14T08:49:07;7.90;99.90
28654;DHT22;24320;56.980;24.336;2023-03-14T08:51:34;8.20;99.90
28654;DHT22;24320;56.980;24.336;2023-03-14T08:54:01;8.40;99.90
28654;DHT22;24320;56.980;24.336;2023-03-14T08:56:30;8.50;99.90
28654;DHT22;24320;56.980;24.336;2023-03-14T08:58:57;8.50;99.90
28654;DHT22;24320;56.980;24.336;2023-03-14T09:01:24;8.50;99.90
28654;DHT22;24320;56.980;24.336;2023-03-14T09:03:52;8.60;99.90
28654;DHT22;24320;56.980;24.336;2023-03-14T09:06:20;8.50;99.90
28654;DHT22;24320;56.980;24.336;2023-03-14T09:08:47;8.50;99.90
28654;DHT22;24320;56.980;24.336;2023-03-14T09:11:14;8.60;99.90
28654;DHT22;24320;56.980;24.336;2023-03-14T09:13:41;8.50;99.90
28654;DHT22;24320;56.980;24.336;2023-03-14T09:16:08;8.50;99.90
28654;DHT22;24320;56.980;24.336;2023-03-14T09:18:36;8.50;99.90
28654;DHT22;24320;56.980;24.336;2023-03-14T09:21:03;8.60;99.90
28654;DHT22;24320;56.980;24.336;2023-03-14T09:23:30;8.70;99.90
28654;DHT22;24320;56.980;24.336;2023-03-14T09:25:58;8.80;99.90
28654;DHT22;24320;56.980;24.336;2023-03-14T09:28:25;8.90;99.90
28654;DHT22;24320;56.980;24.336;2023-03-14T09:30:52;8.90;99.90
28654;DHT22;24320;56.980;24.336;2023-03-14T09:33:20;8.90;99.90
28654;DHT22;24320;56.980;24.336;2023-03-14T09:35:48;8.90;99.90
28654;DHT22;24320;56.980;24.336;2023-03-14T09:38:15;8.90;99.90
28654;DHT22;24320;56.980;24.336;2023-03-14T09:40:43;8.90;99.90
28654;DHT22;24320;56.980;24.336;2023-03-14T09:43:11;9.10;99.90
28654;DHT22;24320;56.980;24.336;2023-03-14T09:45:41;9.20;99.90
28654;DHT22;24320;56.980;24.336;2023-03-14T09:48:16;9.20;99.90
28654;DHT22;24320;56.980;24.336;2023-03-14T09:50:48;9.20;99.90
28654;DHT22;24320;56.980;24.336;2023-03-14T09:53:24;9.20;99.90
28654;DHT22;24320;56.980;24.336;2023-03-14T09:55:53;9.30;99.90
28654;DHT22;24320;56.980;24.336;2023-03-14T09:58:23;9.30;99.90
28654;DHT22;24320;56.980;24.336;2023-03-14T10:00:53;9.30;99.90
28654;DHT22;24320;56.980;24.336;2023-03-14T10:03:35;9.30;99.90
28654;DHT22;24320;56.980;24.336;2023-03-14T10:06:02;9.40;99.90
28654;DHT22;24320;56.980;24.336;2023-03-14T10:08:39;9.40;99.90
28654;DHT22;24320;56.980;24.336;2023-03-14T10:11:10;9.50;99.90
28654;DHT22;24320;56.980;24.336;2023-03-14T10:13:48;9.50;99.90
28654;DHT22;24320;56.980;24.336;2023-03-14T10:16:16;9.50;99.90
28654;DHT22;24320;56.980;24.336;2023-03-14T10:18:46;9.40;99.90
28654;DHT22;24320;56.980;24.336;2023-03-14T10:21:28;9.40;99.90
28654;DHT22;24320;56.980;24.336;2023-03-14T10:26:43;9.40;99.90
28654;DHT22;24320;56.980;24.336;2023-03-14T10:29:12;9.40;99.90
28654;DHT22;24320;56.980;24.336;2023-03-14T10:31:54;9.50;99.90
28654;DHT22;24320;56.980;24.336;2023-03-14T10:34:28;9.50;99.90
28654;DHT22;24320;56.980;24.336;2023-03-14T10:36:58;9.50;99.90
28654;DHT22;24320;56.980;24.336;2023-03-14T10:42:24;9.20;99.90
28654;DHT22;24320;56.980;24.336;2023-03-14T10:45:03;9.20;99.90
28654;DHT22;24320;56.980;24.336;2023-03-14T10:47:32;9.20;99.90
28654;DHT22;24320;56.980;24.336;2023-03-14T10:50:26;9.30;99.90
28654;DHT22;24320;56.980;24.336;2023-03-14T10:52:55;9.40;99.90
28654;DHT22;24320;56.980;24.336;2023-03-14T10:55:42;9.40;99.90
28654;DHT22;24320;56.980;24.336;2023-03-14T10:58:24;9.30;99.90
28654;DHT22;24320;56.980;24.336;2023-03-14T11:00:57;9.20;99.90
28654;DHT22;24320;56.980;24.336;2023-03-14T11:03:26;9.10;99.90
28654;DHT22;24320;56.980;24.336;2023-03-14T11:05:59;8.90;99.90
28654;DHT22;24320;56.980;24.336;2023-03-14T11:11:20;9.10;99.90
28654;DHT22;24320;56.980;24.336;2023-03-14T11:24:24;9.40;99.90
28654;DHT22;24320;56.980;24.336;2023-03-14T11:26:59;9.40;99.90
28654;DHT22;24320;56.980;24.336;2023-03-14T11:32:02;9.50;99.90
28654;DHT22;24320;56.980;24.336;2023-03-14T11:35:01;9.60;99.90
28654;DHT22;24320;56.980;24.336;2023-03-14T11:37:38;9.70;99.90
28654;DHT22;24320;56.980;24.336;2023-03-14T11:40:22;9.70;99.90
28654;DHT22;24320;56.980;24.336;2023-03-14T11:43:04;9.80;99.90
28654;DHT22;24320;56.980;24.336;2023-03-14T11:48:20;9.70;99.90
28654;DHT22;24320;56.980;24.336;2023-03-14T11:50:52;9.70;99.90
28654;DHT22;24320;56.980;24.336;2023-03-14T11:59:16;9.60;99.90
28654;DHT22;24320;56.980;24.336;2023-03-14T12:01:57;9.60;99.90
28654;DHT22;24320;56.980;24.336;2023-03-14T12:04:51;9.50;99.90
28654;DHT22;24320;56.980;24.336;2023-03-14T12:08:16;9.50;99.90
28654;DHT22;24320;56.980;24.336;2023-03-14T12:10:13;9.50;99.90
28654;DHT22;24320;56.980;24.336;2023-03-14T12:12:41;9.50;99.90
28654;DHT22;24320;56.980;24.336;2023-03-14T12:15:19;9.50;99.90
28654;DHT22;24320;56.980;24.336;2023-03-14T12:17:54;9.50;99.90
28654;DHT22;24320;56.980;24.336;2023-03-14T12:20:25;9.50;99.90
28654;DHT22;24320;56.980;24.336;2023-03-14T12:25:30;9.50;99.90
28654;DHT22;24320;56.980;24.336;2023-03-14T12:28:30;9.30;99.90
28654;DHT22;24320;56.980;24.336;2023-03-14T12:34:26;9.00;99.90
28654;DHT22;24320;56.980;24.336;2023-03-14T12:36:56;8.90;99.90
28654;DHT22;24320;56.980;24.336;2023-03-14T12:42:46;8.60;99.90
28654;DHT22;24320;56.980;24.336;2023-03-14T12:45:30;8.60;99.90
28654;DHT22;24320;56.980;24.336;2023-03-14T12:48:43;8.50;99.90
28654;DHT22;24320;56.980;24.336;2023-03-14T12:51:04;8.40;99.90
28654;DHT22;24320;56.980;24.336;2023-03-14T12:56:26;8.50;99.90
28654;DHT22;24320;56.980;24.336;2023-03-14T13:01:52;8.40;99.90
28654;DHT22;24320;56.980;24.336;2023-03-14T13:04:35;8.40;99.90
28654;DHT22;24320;56.980;24.336;2023-03-14T13:07:12;8.40;99.90
28654;DHT22;24320;56.980;24.336;2023-03-14T13:10:00;8.40;99.90
28654;DHT22;24320;56.980;24.336;2023-03-14T13:12:34;8.40;99.90
28654;DHT22;24320;56.980;24.336;2023-03-14T13:15:21;8.40;99.90
28654;DHT22;24320;56.980;24.336;2023-03-14T13:17:49;8.30;99.90
28654;DHT22;24320;56.980;24.336;2023-03-14T13:20:27;8.20;99.90
28654;DHT22;24320;56.980;24.336;2023-03-14T13:22:55;8.20;99.90
28654;DHT22;24320;56.980;24.336;2023-03-14T13:25:22;8.20;99.90
28654;DHT22;24320;56.980;24.336;2023-03-14T13:27:52;8.20;99.90
28654;DHT22;24320;56.980;24.336;2023-03-14T13:32:52;8.30;99.90
28654;DHT22;24320;56.980;24.336;2023-03-14T13:35:27;8.30;99.90
28654;DHT22;24320;56.980;24.336;2023-03-14T13:38:00;8.20;99.90
28654;DHT22;24320;56.980;24.336;2023-03-14T13:40:38;8.00;99.90
28654;DHT22;24320;56.980;24.336;2023-03-14T13:43:15;7.90;99.90
28654;DHT22;24320;56.980;24.336;2023-03-14T13:45:49;7.80;99.90
28654;DHT22;24320;56.980;24.336;2023-03-14T13:48:17;7.80;99.90
28654;DHT22;24320;56.980;24.336;2023-03-14T13:51:06;7.70;99.90
28654;DHT22;24320;56.980;24.336;2023-03-14T13:53:52;7.70;99.90
28654;DHT22;24320;56.980;24.336;2023-03-14T13:56:21;7.60;99.90
28654;DHT22;24320;56.980;24.336;2023-03-14T13:58:49;7.50;99.90
28654;DHT22;24320;56.980;24.336;2023-03-14T14:01:20;7.50;99.90
28654;DHT22;24320;56.980;24.336;2023-03-14T14:03:54;7.40;99.90
28654;DHT22;24320;56.980;24.336;2023-03-14T14:06:29;7.40;99.90
28654;DHT22;24320;56.980;24.336;2023-03-14T14:09:03;7.30;99.90
28654;DHT22;24320;56.980;24.336;2023-03-14T14:17:38;7.10;99.90
28654;DHT22;24320;56.980;24.336;2023-03-14T14:20:20;7.10;99.90
28654;DHT22;24320;56.980;24.336;2023-03-14T14:22:47;7.00;99.90
28654;DHT22;24320;56.980;24.336;2023-03-14T14:25:15;7.00;99.90
28654;DHT22;24320;56.980;24.336;2023-03-14T14:27:47;7.00;99.90
28654;DHT22;24320;56.980;24.336;2023-03-14T14:32:49;6.80;99.90
28654;DHT22;24320;56.980;24.336;2023-03-14T14:37:54;6.80;99.90
28654;DHT22;24320;56.980;24.336;2023-03-14T14:40:26;6.70;99.90
28654;DHT22;24320;56.980;24.336;2023-03-14T14:42:53;6.80;99.90
28654;DHT22;24320;56.980;24.336;2023-03-14T14:45:23;6.70;99.90
28654;DHT22;24320;56.980;24.336;2023-03-14T14:47:54;6.60;99.90
28654;DHT22;24320;56.980;24.336;2023-03-14T14:53:28;6.50;99.90
28654;DHT22;24320;56.980;24.336;2023-03-14T14:55:59;6.40;99.90
28654;DHT22;24320;56.980;24.336;2023-03-14T15:03:49;6.30;99.90
28654;DHT22;24320;56.980;24.336;2023-03-14T15:06:17;6.20;99.90
28654;DHT22;24320;56.980;24.336;2023-03-14T15:08:46;6.20;99.90
28654;DHT22;24320;56.980;24.336;2023-03-14T15:11:17;6.20;99.90
28654;DHT22;24320;56.980;24.336;2023-03-14T15:13:44;6.20;99.90
28654;DHT22;24320;56.980;24.336;2023-03-14T15:16:12;6.10;99.90
28654;DHT22;24320;56.980;24.336;2023-03-14T15:18:40;6.00;99.90
28654;DHT22;24320;56.980;24.336;2023-03-14T15:21:10;6.00;99.90
28654;DHT22;24320;56.980;24.336;2023-03-14T15:23:37;6.10;99.90
28654;DHT22;24320;56.980;24.336;2023-03-14T15:26:12;6.10;99.90
28654;DHT22;24320;56.980;24.336;2023-03-14T15:28:40;6.10;99.90
28654;DHT22;24320;56.980;24.336;2023-03-14T15:31:11;6.00;99.90
28654;DHT22;24320;56.980;24.336;2023-03-14T15:33:38;6.00;99.90
28654;DHT22;24320;56.980;24.336;2023-03-14T15:36:14;6.00;99.90
28654;DHT22;24320;56.980;24.336;2023-03-14T15:38:43;6.10;99.90
28654;DHT22;24320;56.980;24.336;2023-03-14T15:41:10;6.10;99.90
28654;DHT22;24320;56.980;24.336;2023-03-14T15:43:37;6.10;99.90
28654;DHT22;24320;56.980;24.336;2023-03-14T15:46:04;6.10;99.90
28654;DHT22;24320;56.980;24.336;2023-03-14T15:48:33;6.10;99.90
28654;DHT22;24320;56.980;24.336;2023-03-14T15:50:59;6.00;99.90
28654;DHT22;24320;56.980;24.336;2023-03-14T15:53:26;6.00;99.90
28654;DHT22;24320;56.980;24.336;2023-03-14T15:55:53;5.90;99.90
28654;DHT22;24320;56.980;24.336;2023-03-14T15:58:21;5.90;99.90
28654;DHT22;24320;56.980;24.336;2023-03-14T16:00:48;5.90;99.90
28654;DHT22;24320;56.980;24.336;2023-03-14T16:03:16;5.90;99.90
28654;DHT22;24320;56.980;24.336;2023-03-14T16:05:43;5.90;99.90
28654;DHT22;24320;56.980;24.336;2023-03-14T16:08:10;5.80;99.90
28654;DHT22;24320;56.980;24.336;2023-03-14T16:10:37;5.80;99.90
28654;DHT22;24320;56.980;24.336;2023-03-14T16:13:05;5.80;99.90
28654;DHT22;24320;56.980;24.336;2023-03-14T16:15:32;5.70;99.90
28654;DHT22;24320;56.980;24.336;2023-03-14T16:17:59;5.70;99.90
28654;DHT22;24320;56.980;24.336;2023-03-14T16:20:32;5.70;99.90
28654;DHT22;24320;56.980;24.336;2023-03-14T16:23:12;5.70;99.90
28654;DHT22;24320;56.980;24.336;2023-03-14T16:25:44;5.70;99.90
28654;DHT22;24320;56.980;24.336;2023-03-14T16:28:11;5.70;99.90
28654;DHT22;24320;56.980;24.336;2023-03-14T16:30:38;5.70;99.90
28654;DHT22;24320;56.980;24.336;2023-03-14T16:33:05;5.70;99.90
28654;DHT22;24320;56.980;24.336;2023-03-14T16:35:39;5.70;99.90
28654;DHT22;24320;56.980;24.336;2023-03-14T16:38:06;5.70;99.90
28654;DHT22;24320;56.980;24.336;2023-03-14T16:40:33;5.70;99.90
28654;DHT22;24320;56.980;24.336;2023-03-14T16:43:00;5.70;99.90
28654;DHT22;24320;56.980;24.336;2023-03-14T16:45:41;5.70;99.90
28654;DHT22;24320;56.980;24.336;2023-03-14T16:48:09;5.70;99.90
28654;DHT22;24320;56.980;24.336;2023-03-14T16:50:36;5.70;99.90
28654;DHT22;24320;56.980;24.336;2023-03-14T16:53:05;5.70;99.90
28654;DHT22;24320;56.980;24.336;2023-03-14T16:55:52;5.70;99.90
28654;DHT22;24320;56.980;24.336;2023-03-14T16:58:19;5.70;99.90
28654;DHT22;24320;56.980;24.336;2023-03-14T17:00:47;5.70;99.90
28654;DHT22;24320;56.980;24.336;2023-03-14T17:03:16;5.70;99.90
28654;DHT22;24320;56.980;24.336;2023-03-14T17:05:48;5.70;99.90